sensor_id;sensor_type;location;lat;lon;timestamp;P1;durP1;ratioP1;P2;durP2;ratioP2
50417;SDS011;36346;48.280;14.292;2023-12-20T00:01:23;26.46;;;26.37;;
50417;SDS011;36346;48.280;14.292;2023-12-20T00:03:52;25.57;;;25.42;;
50417;SDS011;36346;48.280;14.292;2023-12-20T00:06:20;24.41;;;24.22;;
50417;SDS011;36346;48.280;14.292;2023-12-20T00:08:48;21.88;;;21.79;;
50417;SDS011;36346;48.280;14.292;2023-12-20T00:11:16;19.47;;;19.43;;
50417;SDS011;36346;48.280;14.292;2023-12-20T00:13:45;19.05;;;18.91;;
50417;SDS011;36346;48.280;14.292;2023-12-20T00:16:18;17.66;;;17.54;;
50417;SDS011;36346;48.280;14.292;2023-12-20T00:18:47;17.74;;;17.68;;
50417;SDS011;36346;48.280;14.292;2023-12-20T00:21:15;18.10;;;18.07;;
50417;SDS011;36346;48.280;14.292;2023-12-20T00:23:43;19.35;;;19.34;;
50417;SDS011;36346;48.280;14.292;2023-12-20T00:26:11;18.93;;;18.92;;
50417;SDS011;36346;48.280;14.292;2023-12-20T00:28:40;19.04;;;19.00;;
50417;SDS011;36346;48.280;14.292;2023-12-20T00:31:08;18.05;;;18.02;;
50417;SDS011;36346;48.280;14.292;2023-12-20T00:33:37;17.44;;;17.44;;
50417;SDS011;36346;48.280;14.292;2023-12-20T00:36:05;17.28;;;17.24;;
50417;SDS011;36346;48.280;14.292;2023-12-20T00:38:33;17.29;;;17.18;;
50417;SDS011;36346;48.280;14.292;2023-12-20T00:41:01;17.50;;;17.43;;
50417;SDS011;36346;48.280;14.292;2023-12-20T00:43:30;17.08;;;17.07;;
50417;SDS011;36346;48.280;14.292;2023-12-20T00:45:58;16.90;;;16.89;;
50417;SDS011;36346;48.280;14.292;2023-12-20T00:48:27;16.96;;;16.96;;
50417;SDS011;36346;48.280;14.292;2023-12-20T00:50:58;18.66;;;18.60;;
50417;SDS011;36346;48.280;14.292;2023-12-20T00:53:26;23.00;;;22.85;;
50417;SDS011;36346;48.280;14.292;2023-12-20T00:55:54;24.20;;;24.17;;
50417;SDS011;36346;48.280;14.292;2023-12-20T00:58:22;26.16;;;26.14;;
50417;SDS011;36346;48.280;14.292;2023-12-20T01:00:50;27.11;;;27.09;;
50417;SDS011;36346;48.280;14.292;2023-12-20T01:03:19;26.93;;;26.92;;
50417;SDS011;36346;48.280;14.292;2023-12-20T01:05:47;27.54;;;27.48;;
50417;SDS011;36346;48.280;14.292;2023-12-20T01:08:15;28.55;;;28.47;;
50417;SDS011;36346;48.280;14.292;2023-12-20T01:10:43;28.30;;;28.21;;
50417;SDS011;36346;48.280;14.292;2023-12-20T01:13:11;28.22;;;28.18;;
50417;SDS011;36346;48.280;14.292;2023-12-20T01:15:39;27.92;;;27.84;;
50417;SDS011;36346;48.280;14.292;2023-12-20T01:18:08;28.05;;;27.98;;
50417;SDS011;36346;48.280;14.292;2023-12-20T01:20:36;28.35;;;28.34;;
50417;SDS011;36346;48.280;14.292;2023-12-20T01:23:04;27.62;;;27.60;;
50417;SDS011;36346;48.280;14.292;2023-12-20T01:25:33;28.24;;;28.20;;
50417;SDS011;36346;48.280;14.292;2023-12-20T01:28:01;28.58;;;28.54;;
50417;SDS011;36346;48.280;14.292;2023-12-20T01:30:31;28.70;;;28.63;;
50417;SDS011;36346;48.280;14.292;2023-12-20T01:33:00;28.71;;;28.66;;
50417;SDS011;36346;48.280;14.292;2023-12-20T01:35:29;27.70;;;27.67;;
50417;SDS011;36346;48.280;14.292;2023-12-20T01:37:57;27.71;;;27.71;;
50417;SDS011;36346;48.280;14.292;2023-12-20T01:40:25;26.76;;;26.76;;
50417;SDS011;36346;48.280;14.292;2023-12-20T01:42:59;26.64;;;26.63;;
50417;SDS011;36346;48.280;14.292;2023-12-20T01:45:28;25.97;;;25.95;;
50417;SDS011;36346;48.280;14.292;2023-12-20T01:47:56;22.81;;;22.76;;
50417;SDS011;36346;48.280;14.292;2023-12-20T01:50:26;21.90;;;21.90;;
50417;SDS011;36346;48.280;14.292;2023-12-20T01:52:55;22.17;;;22.14;;
50417;SDS011;36346;48.280;14.292;2023-12-20T01:55:27;20.44;;;20.40;;
50417;SDS011;36346;48.280;14.292;2023-12-20T01:57:59;20.15;;;20.14;;
50417;SDS011;36346;48.280;14.292;2023-12-20T02:00:28;21.09;;;21.08;;
50417;SDS011;36346;48.280;14.292;2023-12-20T02:03:00;22.75;;;22.75;;
50417;SDS011;36346;48.280;14.292;2023-12-20T02:05:30;22.59;;;22.54;;
50417;SDS011;36346;48.280;14.292;2023-12-20T02:07:59;22.88;;;22.85;;
50417;SDS011;36346;48.280;14.292;2023-12-20T02:10:27;21.93;;;21.86;;
50417;SDS011;36346;48.280;14.292;2023-12-20T02:12:56;20.90;;;20.89;;
50417;SDS011;36346;48.280;14.292;2023-12-20T02:15:25;22.17;;;22.14;;
50417;SDS011;36346;48.280;14.292;2023-12-20T02:17:55;23.17;;;23.16;;
50417;SDS011;36346;48.280;14.292;2023-12-20T02:20:23;23.01;;;22.99;;
50417;SDS011;36346;48.280;14.292;2023-12-20T02:22:52;22.91;;;22.91;;
50417;SDS011;36346;48.280;14.292;2023-12-20T02:25:20;23.19;;;23.09;;
50417;SDS011;36346;48.280;14.292;2023-12-20T02:27:48;22.59;;;22.58;;
50417;SDS011;36346;48.280;14.292;2023-12-20T02:30:17;23.04;;;22.94;;
50417;SDS011;36346;48.280;14.292;2023-12-20T02:32:46;22.36;;;22.35;;
50417;SDS011;36346;48.280;14.292;2023-12-20T02:35:15;22.69;;;22.69;;
50417;SDS011;36346;48.280;14.292;2023-12-20T02:37:43;23.22;;;23.20;;
50417;SDS011;36346;48.280;14.292;2023-12-20T02:40:14;22.73;;;22.59;;
50417;SDS011;36346;48.280;14.292;2023-12-20T02:42:42;22.54;;;22.54;;
50417;SDS011;36346;48.280;14.292;2023-12-20T02:45:11;21.70;;;21.67;;
50417;SDS011;36346;48.280;14.292;2023-12-20T02:47:39;22.43;;;22.42;;
50417;SDS011;36346;48.280;14.292;2023-12-20T02:50:07;22.18;;;22.16;;
50417;SDS011;36346;48.280;14.292;2023-12-20T02:52:36;21.65;;;21.57;;
50417;SDS011;36346;48.280;14.292;2023-12-20T02:55:05;22.00;;;21.77;;
50417;SDS011;36346;48.280;14.292;2023-12-20T02:57:33;22.39;;;22.36;;
50417;SDS011;36346;48.280;14.292;2023-12-20T03:00:04;22.31;;;22.30;;
50417;SDS011;36346;48.280;14.292;2023-12-20T03:02:33;23.04;;;23.01;;
50417;SDS011;36346;48.280;14.292;2023-12-20T03:05:01;22.36;;;22.36;;
50417;SDS011;36346;48.280;14.292;2023-12-20T03:07:30;22.79;;;22.75;;
50417;SDS011;36346;48.280;14.292;2023-12-20T03:09:58;22.54;;;22.52;;
50417;SDS011;36346;48.280;14.292;2023-12-20T03:12:46;22.51;;;22.46;;
50417;SDS011;36346;48.280;14.292;2023-12-20T03:15:14;23.64;;;23.59;;
50417;SDS011;36346;48.280;14.292;2023-12-20T03:17:42;22.92;;;22.86;;
50417;SDS011;36346;48.280;14.292;2023-12-20T03:20:12;23.17;;;23.16;;
50417;SDS011;36346;48.280;14.292;2023-12-20T03:22:41;22.39;;;22.37;;
50417;SDS011;36346;48.280;14.292;2023-12-20T03:25:09;22.37;;;22.35;;
50417;SDS011;36346;48.280;14.292;2023-12-20T03:27:38;22.29;;;22.19;;
50417;SDS011;36346;48.280;14.292;2023-12-20T03:30:09;21.48;;;21.47;;
50417;SDS011;36346;48.280;14.292;2023-12-20T03:32:38;21.83;;;21.78;;
50417;SDS011;36346;48.280;14.292;2023-12-20T03:35:06;21.78;;;21.75;;
50417;SDS011;36346;48.280;14.292;2023-12-20T03:37:34;21.98;;;21.97;;
50417;SDS011;36346;48.280;14.292;2023-12-20T03:40:03;21.56;;;21.54;;
50417;SDS011;36346;48.280;14.292;2023-12-20T03:42:31;22.46;;;22.36;;
50417;SDS011;36346;48.280;14.292;2023-12-20T03:44:59;22.07;;;22.07;;
50417;SDS011;36346;48.280;14.292;2023-12-20T03:47:27;22.26;;;22.24;;
50417;SDS011;36346;48.280;14.292;2023-12-20T03:49:55;22.32;;;22.31;;
50417;SDS011;36346;48.280;14.292;2023-12-20T03:52:23;21.69;;;21.67;;
50417;SDS011;36346;48.280;14.292;2023-12-20T03:54:51;22.08;;;22.08;;
50417;SDS011;36346;48.280;14.292;2023-12-20T03:57:20;21.78;;;21.76;;
50417;SDS011;36346;48.280;14.292;2023-12-20T03:59:48;21.83;;;21.83;;
50417;SDS011;36346;48.280;14.292;2023-12-20T04:02:16;22.17;;;22.15;;
50417;SDS011;36346;48.280;14.292;2023-12-20T04:04:45;21.93;;;21.93;;
50417;SDS011;36346;48.280;14.292;2023-12-20T04:07:13;22.02;;;21.98;;
50417;SDS011;36346;48.280;14.292;2023-12-20T04:09:43;21.28;;;21.25;;
50417;SDS011;36346;48.280;14.292;2023-12-20T04:12:11;22.03;;;22.03;;
50417;SDS011;36346;48.280;14.292;2023-12-20T04:14:39;21.72;;;21.70;;
50417;SDS011;36346;48.280;14.292;2023-12-20T04:17:07;21.64;;;21.64;;
50417;SDS011;36346;48.280;14.292;2023-12-20T04:19:36;21.70;;;21.62;;
50417;SDS011;36346;48.280;14.292;2023-12-20T04:22:04;21.67;;;21.65;;
50417;SDS011;36346;48.280;14.292;2023-12-20T04:24:32;22.11;;;22.11;;
50417;SDS011;36346;48.280;14.292;2023-12-20T04:27:01;21.62;;;21.61;;
50417;SDS011;36346;48.280;14.292;2023-12-20T04:29:29;21.73;;;21.73;;
50417;SDS011;36346;48.280;14.292;2023-12-20T04:31:57;20.91;;;20.87;;
50417;SDS011;36346;48.280;14.292;2023-12-20T04:34:26;21.11;;;21.10;;
50417;SDS011;36346;48.280;14.292;2023-12-20T04:36:57;21.69;;;21.68;;
50417;SDS011;36346;48.280;14.292;2023-12-20T04:39:25;20.54;;;20.47;;
50417;SDS011;36346;48.280;14.292;2023-12-20T04:41:55;20.54;;;20.47;;
50417;SDS011;36346;48.280;14.292;2023-12-20T04:44:23;21.29;;;21.25;;
50417;SDS011;36346;48.280;14.292;2023-12-20T04:46:51;21.71;;;21.68;;
50417;SDS011;36346;48.280;14.292;2023-12-20T04:49:20;21.37;;;21.31;;
50417;SDS011;36346;48.280;14.292;2023-12-20T04:51:48;21.02;;;21.01;;
50417;SDS011;36346;48.280;14.292;2023-12-20T04:54:17;21.94;;;21.93;;
50417;SDS011;36346;48.280;14.292;2023-12-20T04:56:45;21.47;;;21.44;;
50417;SDS011;36346;48.280;14.292;2023-12-20T04:59:13;22.03;;;22.01;;
50417;SDS011;36346;48.280;14.292;2023-12-20T05:01:41;21.57;;;21.56;;
50417;SDS011;36346;48.280;14.292;2023-12-20T05:04:09;21.99;;;21.96;;
50417;SDS011;36346;48.280;14.292;2023-12-20T05:06:37;21.51;;;21.44;;
50417;SDS011;36346;48.280;14.292;2023-12-20T05:09:05;21.64;;;21.59;;
50417;SDS011;36346;48.280;14.292;2023-12-20T05:11:34;21.25;;;21.19;;
50417;SDS011;36346;48.280;14.292;2023-12-20T05:14:02;21.92;;;21.86;;
50417;SDS011;36346;48.280;14.292;2023-12-20T05:16:30;22.50;;;22.49;;
50417;SDS011;36346;48.280;14.292;2023-12-20T05:18:58;23.24;;;23.20;;
50417;SDS011;36346;48.280;14.292;2023-12-20T05:21:29;23.20;;;23.12;;
50417;SDS011;36346;48.280;14.292;2023-12-20T05:23:58;23.93;;;23.92;;
50417;SDS011;36346;48.280;14.292;2023-12-20T05:26:27;23.94;;;23.92;;
50417;SDS011;36346;48.280;14.292;2023-12-20T05:28:57;24.79;;;24.70;;
50417;SDS011;36346;48.280;14.292;2023-12-20T05:31:25;25.07;;;25.06;;
50417;SDS011;36346;48.280;14.292;2023-12-20T05:33:54;23.62;;;23.61;;
50417;SDS011;36346;48.280;14.292;2023-12-20T05:36:23;24.53;;;24.53;;
50417;SDS011;36346;48.280;14.292;2023-12-20T05:38:51;24.34;;;24.28;;
50417;SDS011;36346;48.280;14.292;2023-12-20T05:41:19;23.45;;;23.43;;
50417;SDS011;36346;48.280;14.292;2023-12-20T05:43:49;23.56;;;23.55;;
50417;SDS011;36346;48.280;14.292;2023-12-20T05:46:17;22.60;;;22.54;;
50417;SDS011;36346;48.280;14.292;2023-12-20T05:48:45;21.95;;;21.87;;
50417;SDS011;36346;48.280;14.292;2023-12-20T05:51:13;21.87;;;21.84;;
50417;SDS011;36346;48.280;14.292;2023-12-20T05:53:41;21.44;;;21.41;;
50417;SDS011;36346;48.280;14.292;2023-12-20T05:56:10;21.14;;;21.14;;
50417;SDS011;36346;48.280;14.292;2023-12-20T05:58:38;19.71;;;19.69;;
50417;SDS011;36346;48.280;14.292;2023-12-20T06:01:07;19.67;;;19.66;;
50417;SDS011;36346;48.280;14.292;2023-12-20T06:03:36;18.94;;;18.91;;
50417;SDS011;36346;48.280;14.292;2023-12-20T06:06:07;19.45;;;19.40;;
50417;SDS011;36346;48.280;14.292;2023-12-20T06:08:43;18.67;;;18.63;;
50417;SDS011;36346;48.280;14.292;2023-12-20T06:11:12;18.49;;;18.48;;
50417;SDS011;36346;48.280;14.292;2023-12-20T06:13:41;18.94;;;18.92;;
50417;SDS011;36346;48.280;14.292;2023-12-20T06:16:09;18.28;;;18.26;;
50417;SDS011;36346;48.280;14.292;2023-12-20T06:18:37;18.58;;;18.57;;
50417;SDS011;36346;48.280;14.292;2023-12-20T06:21:06;18.55;;;18.53;;
50417;SDS011;36346;48.280;14.292;2023-12-20T06:23:35;18.38;;;18.37;;
50417;SDS011;36346;48.280;14.292;2023-12-20T06:26:03;17.94;;;17.94;;
50417;SDS011;36346;48.280;14.292;2023-12-20T06:28:32;17.66;;;17.66;;
50417;SDS011;36346;48.280;14.292;2023-12-20T06:31:00;17.95;;;17.95;;
50417;SDS011;36346;48.280;14.292;2023-12-20T06:33:29;17.96;;;17.95;;
50417;SDS011;36346;48.280;14.292;2023-12-20T06:35:58;17.82;;;17.82;;
50417;SDS011;36346;48.280;14.292;2023-12-20T06:38:27;17.63;;;17.63;;
50417;SDS011;36346;48.280;14.292;2023-12-20T06:40:55;17.19;;;17.19;;
50417;SDS011;36346;48.280;14.292;2023-12-20T06:43:26;16.77;;;16.70;;
50417;SDS011;36346;48.280;14.292;2023-12-20T06:46:13;11.87;;;11.87;;
50417;SDS011;36346;48.280;14.292;2023-12-20T06:48:41;10.86;;;10.86;;
50417;SDS011;36346;48.280;14.292;2023-12-20T06:51:16;10.37;;;10.37;;
50417;SDS011;36346;48.280;14.292;2023-12-20T06:53:45;9.30;;;9.30;;
50417;SDS011;36346;48.280;14.292;2023-12-20T06:56:13;9.24;;;9.24;;
50417;SDS011;36346;48.280;14.292;2023-12-20T06:58:45;8.70;;;8.70;;
50417;SDS011;36346;48.280;14.292;2023-12-20T07:01:14;8.52;;;8.49;;
50417;SDS011;36346;48.280;14.292;2023-12-20T07:03:43;9.19;;;9.14;;
50417;SDS011;36346;48.280;14.292;2023-12-20T07:06:11;8.88;;;8.88;;
50417;SDS011;36346;48.280;14.292;2023-12-20T07:08:39;8.46;;;8.44;;
50417;SDS011;36346;48.280;14.292;2023-12-20T07:11:08;8.30;;;8.27;;
50417;SDS011;36346;48.280;14.292;2023-12-20T07:13:36;7.93;;;7.91;;
50417;SDS011;36346;48.280;14.292;2023-12-20T07:16:04;8.07;;;8.06;;
50417;SDS011;36346;48.280;14.292;2023-12-20T07:18:32;8.23;;;8.22;;
50417;SDS011;36346;48.280;14.292;2023-12-20T07:21:00;8.11;;;8.10;;
50417;SDS011;36346;48.280;14.292;2023-12-20T07:23:29;8.53;;;8.53;;
50417;SDS011;36346;48.280;14.292;2023-12-20T07:25:57;8.81;;;8.81;;
50417;SDS011;36346;48.280;14.292;2023-12-20T07:28:25;9.18;;;9.17;;
50417;SDS011;36346;48.280;14.292;2023-12-20T07:30:53;10.14;;;10.14;;
50417;SDS011;36346;48.280;14.292;2023-12-20T07:33:21;10.76;;;10.74;;
50417;SDS011;36346;48.280;14.292;2023-12-20T07:35:49;12.00;;;11.96;;
50417;SDS011;36346;48.280;14.292;2023-12-20T07:38:19;23.52;;;23.26;;
50417;SDS011;36346;48.280;14.292;2023-12-20T07:40:47;13.76;;;13.65;;
50417;SDS011;36346;48.280;14.292;2023-12-20T07:43:16;12.66;;;12.62;;
50417;SDS011;36346;48.280;14.292;2023-12-20T07:45:44;11.60;;;11.60;;
50417;SDS011;36346;48.280;14.292;2023-12-20T07:48:12;10.88;;;10.88;;
50417;SDS011;36346;48.280;14.292;2023-12-20T07:50:40;10.60;;;10.60;;
50417;SDS011;36346;48.280;14.292;2023-12-20T07:53:08;10.19;;;10.17;;
50417;SDS011;36346;48.280;14.292;2023-12-20T07:55:36;9.74;;;9.74;;
50417;SDS011;36346;48.280;14.292;2023-12-20T07:58:04;9.37;;;9.37;;
50417;SDS011;36346;48.280;14.292;2023-12-20T08:00:33;11.91;;;11.83;;
50417;SDS011;36346;48.280;14.292;2023-12-20T08:03:01;7.52;;;7.52;;
50417;SDS011;36346;48.280;14.292;2023-12-20T08:05:31;7.37;;;7.37;;
50417;SDS011;36346;48.280;14.292;2023-12-20T08:07:59;6.33;;;6.33;;
50417;SDS011;36346;48.280;14.292;2023-12-20T08:10:27;6.45;;;6.45;;
50417;SDS011;36346;48.280;14.292;2023-12-20T08:12:57;5.76;;;5.76;;
50417;SDS011;36346;48.280;14.292;2023-12-20T08:15:28;5.17;;;5.16;;
50417;SDS011;36346;48.280;14.292;2023-12-20T08:17:56;5.34;;;5.32;;
50417;SDS011;36346;48.280;14.292;2023-12-20T08:20:24;4.86;;;4.86;;
50417;SDS011;36346;48.280;14.292;2023-12-20T08:23:06;4.89;;;4.88;;
50417;SDS011;36346;48.280;14.292;2023-12-20T08:25:34;4.68;;;4.67;;
50417;SDS011;36346;48.280;14.292;2023-12-20T08:28:02;4.63;;;4.58;;
50417;SDS011;36346;48.280;14.292;2023-12-20T08:30:34;4.54;;;4.51;;
50417;SDS011;36346;48.280;14.292;2023-12-20T08:33:02;4.34;;;4.34;;
50417;SDS011;36346;48.280;14.292;2023-12-20T08:35:31;4.04;;;4.04;;
50417;SDS011;36346;48.280;14.292;2023-12-20T08:37:59;4.04;;;4.03;;
50417;SDS011;36346;48.280;14.292;2023-12-20T08:40:27;4.27;;;4.25;;
50417;SDS011;36346;48.280;14.292;2023-12-20T08:42:56;4.16;;;4.16;;
50417;SDS011;36346;48.280;14.292;2023-12-20T08:45:24;4.27;;;4.27;;
50417;SDS011;36346;48.280;14.292;2023-12-20T08:47:52;4.41;;;4.41;;
50417;SDS011;36346;48.280;14.292;2023-12-20T08:50:22;4.57;;;4.57;;
50417;SDS011;36346;48.280;14.292;2023-12-20T08:52:50;4.44;;;4.44;;
50417;SDS011;36346;48.280;14.292;2023-12-20T08:55:19;4.60;;;4.60;;
50417;SDS011;36346;48.280;14.292;2023-12-20T08:57:47;4.77;;;4.76;;
50417;SDS011;36346;48.280;14.292;2023-12-20T09:00:16;4.90;;;4.90;;
50417;SDS011;36346;48.280;14.292;2023-12-20T09:02:45;5.53;;;5.53;;
50417;SDS011;36346;48.280;14.292;2023-12-20T09:05:13;5.49;;;5.48;;
50417;SDS011;36346;48.280;14.292;2023-12-20T09:07:42;5.77;;;5.74;;
50417;SDS011;36346;48.280;14.292;2023-12-20T09:10:11;6.03;;;6.01;;
50417;SDS011;36346;48.280;14.292;2023-12-20T09:12:39;6.06;;;6.06;;
50417;SDS011;36346;48.280;14.292;2023-12-20T09:15:09;5.46;;;5.46;;
50417;SDS011;36346;48.280;14.292;2023-12-20T09:17:37;5.52;;;5.52;;
50417;SDS011;36346;48.280;14.292;2023-12-20T09:20:06;5.24;;;5.23;;
50417;SDS011;36346;48.280;14.292;2023-12-20T09:22:36;4.93;;;4.93;;
50417;SDS011;36346;48.280;14.292;2023-12-20T09:25:06;4.58;;;4.58;;
50417;SDS011;36346;48.280;14.292;2023-12-20T09:27:34;4.55;;;4.54;;
50417;SDS011;36346;48.280;14.292;2023-12-20T09:30:02;3.71;;;3.71;;
50417;SDS011;36346;48.280;14.292;2023-12-20T09:32:33;4.03;;;4.03;;
50417;SDS011;36346;48.280;14.292;2023-12-20T09:35:02;4.34;;;4.34;;
50417;SDS011;36346;48.280;14.292;2023-12-20T09:37:30;3.85;;;3.85;;
50417;SDS011;36346;48.280;14.292;2023-12-20T09:39:58;4.05;;;4.05;;
50417;SDS011;36346;48.280;14.292;2023-12-20T09:45:19;3.97;;;3.97;;
50417;SDS011;36346;48.280;14.292;2023-12-20T09:47:50;3.82;;;3.82;;
50417;SDS011;36346;48.280;14.292;2023-12-20T09:50:21;3.72;;;3.72;;
50417;SDS011;36346;48.280;14.292;2023-12-20T09:52:50;3.64;;;3.64;;
50417;SDS011;36346;48.280;14.292;2023-12-20T09:55:19;3.55;;;3.55;;
50417;SDS011;36346;48.280;14.292;2023-12-20T09:57:49;3.54;;;3.54;;
50417;SDS011;36346;48.280;14.292;2023-12-20T10:00:17;3.72;;;3.72;;
50417;SDS011;36346;48.280;14.292;2023-12-20T10:02:50;4.29;;;4.27;;
50417;SDS011;36346;48.280;14.292;2023-12-20T10:05:23;4.12;;;4.11;;
50417;SDS011;36346;48.280;14.292;2023-12-20T10:07:55;4.30;;;4.30;;
50417;SDS011;36346;48.280;14.292;2023-12-20T10:10:23;3.96;;;3.96;;
50417;SDS011;36346;48.280;14.292;2023-12-20T10:13:08;4.36;;;4.36;;
50417;SDS011;36346;48.280;14.292;2023-12-20T10:15:38;4.46;;;4.46;;
50417;SDS011;36346;48.280;14.292;2023-12-20T10:18:06;4.69;;;4.69;;
50417;SDS011;36346;48.280;14.292;2023-12-20T10:20:35;4.57;;;4.57;;
50417;SDS011;36346;48.280;14.292;2023-12-20T10:23:03;4.67;;;4.67;;
50417;SDS011;36346;48.280;14.292;2023-12-20T10:25:32;4.81;;;4.81;;
50417;SDS011;36346;48.280;14.292;2023-12-20T10:30:42;4.69;;;4.66;;
50417;SDS011;36346;48.280;14.292;2023-12-20T10:33:11;5.17;;;5.16;;
50417;SDS011;36346;48.280;14.292;2023-12-20T10:35:39;4.96;;;4.95;;
50417;SDS011;36346;48.280;14.292;2023-12-20T10:38:13;4.15;;;4.15;;
50417;SDS011;36346;48.280;14.292;2023-12-20T10:40:43;3.83;;;3.83;;
50417;SDS011;36346;48.280;14.292;2023-12-20T10:43:13;3.44;;;3.44;;
50417;SDS011;36346;48.280;14.292;2023-12-20T10:45:42;3.95;;;3.95;;
50417;SDS011;36346;48.280;14.292;2023-12-20T10:48:11;4.20;;;4.20;;
50417;SDS011;36346;48.280;14.292;2023-12-20T10:50:40;4.24;;;4.24;;
50417;SDS011;36346;48.280;14.292;2023-12-20T10:53:09;4.02;;;4.02;;
50417;SDS011;36346;48.280;14.292;2023-12-20T10:55:37;3.97;;;3.97;;
50417;SDS011;36346;48.280;14.292;2023-12-20T10:58:08;4.03;;;4.03;;
50417;SDS011;36346;48.280;14.292;2023-12-20T11:00:39;3.78;;;3.78;;
50417;SDS011;36346;48.280;14.292;2023-12-20T11:03:09;3.50;;;3.50;;
50417;SDS011;36346;48.280;14.292;2023-12-20T11:05:58;3.40;;;3.40;;
50417;SDS011;36346;48.280;14.292;2023-12-20T11:11:25;3.22;;;3.22;;
50417;SDS011;36346;48.280;14.292;2023-12-20T11:14:00;2.94;;;2.94;;
50417;SDS011;36346;48.280;14.292;2023-12-20T11:16:33;3.00;;;3.00;;
50417;SDS011;36346;48.280;14.292;2023-12-20T11:19:18;2.73;;;2.73;;
50417;SDS011;36346;48.280;14.292;2023-12-20T11:21:46;4.91;;;4.89;;
50417;SDS011;36346;48.280;14.292;2023-12-20T11:24:15;6.54;;;6.46;;
50417;SDS011;36346;48.280;14.292;2023-12-20T11:26:47;5.48;;;5.42;;
50417;SDS011;36346;48.280;14.292;2023-12-20T11:29:29;3.88;;;3.87;;
50417;SDS011;36346;48.280;14.292;2023-12-20T11:32:49;3.12;;;3.12;;
50417;SDS011;36346;48.280;14.292;2023-12-20T11:34:58;2.88;;;2.87;;
50417;SDS011;36346;48.280;14.292;2023-12-20T11:37:29;4.12;;;4.07;;
50417;SDS011;36346;48.280;14.292;2023-12-20T11:40:02;4.15;;;4.10;;
50417;SDS011;36346;48.280;14.292;2023-12-20T11:42:37;5.54;;;5.53;;
50417;SDS011;36346;48.280;14.292;2023-12-20T11:45:10;3.94;;;3.94;;
50417;SDS011;36346;48.280;14.292;2023-12-20T11:47:43;2.58;;;2.58;;
50417;SDS011;36346;48.280;14.292;2023-12-20T11:50:15;2.38;;;2.38;;
50417;SDS011;36346;48.280;14.292;2023-12-20T11:52:44;5.90;;;5.88;;
50417;SDS011;36346;48.280;14.292;2023-12-20T11:55:12;4.28;;;4.22;;
50417;SDS011;36346;48.280;14.292;2023-12-20T11:57:41;6.54;;;6.46;;
50417;SDS011;36346;48.280;14.292;2023-12-20T12:00:10;2.48;;;2.44;;
50417;SDS011;36346;48.280;14.292;2023-12-20T12:02:39;2.31;;;2.30;;
50417;SDS011;36346;48.280;14.292;2023-12-20T12:05:07;2.33;;;2.33;;
50417;SDS011;36346;48.280;14.292;2023-12-20T12:07:36;2.09;;;2.09;;
50417;SDS011;36346;48.280;14.292;2023-12-20T12:10:04;2.01;;;2.01;;
50417;SDS011;36346;48.280;14.292;2023-12-20T12:12:32;1.84;;;1.84;;
50417;SDS011;36346;48.280;14.292;2023-12-20T12:15:01;2.13;;;2.13;;
50417;SDS011;36346;48.280;14.292;2023-12-20T12:17:30;2.01;;;2.01;;
50417;SDS011;36346;48.280;14.292;2023-12-20T12:20:03;1.69;;;1.69;;
50417;SDS011;36346;48.280;14.292;2023-12-20T12:22:33;2.69;;;2.69;;
50417;SDS011;36346;48.280;14.292;2023-12-20T12:25:10;5.02;;;5.02;;
50417;SDS011;36346;48.280;14.292;2023-12-20T12:27:40;2.09;;;2.08;;
50417;SDS011;36346;48.280;14.292;2023-12-20T12:30:10;1.89;;;1.89;;
50417;SDS011;36346;48.280;14.292;2023-12-20T12:32:40;1.71;;;1.71;;
50417;SDS011;36346;48.280;14.292;2023-12-20T12:35:09;1.63;;;1.63;;
50417;SDS011;36346;48.280;14.292;2023-12-20T12:37:38;1.73;;;1.73;;
50417;SDS011;36346;48.280;14.292;2023-12-20T12:40:11;1.73;;;1.73;;
50417;SDS011;36346;48.280;14.292;2023-12-20T12:42:41;1.82;;;1.82;;
50417;SDS011;36346;48.280;14.292;2023-12-20T12:45:11;2.13;;;2.13;;
50417;SDS011;36346;48.280;14.292;2023-12-20T12:47:39;2.01;;;2.01;;
50417;SDS011;36346;48.280;14.292;2023-12-20T12:50:08;1.86;;;1.86;;
50417;SDS011;36346;48.280;14.292;2023-12-20T12:52:36;2.19;;;2.19;;
50417;SDS011;36346;48.280;14.292;2023-12-20T12:55:05;2.26;;;2.26;;
50417;SDS011;36346;48.280;14.292;2023-12-20T12:57:34;1.91;;;1.91;;
50417;SDS011;36346;48.280;14.292;2023-12-20T13:00:02;2.01;;;2.01;;
50417;SDS011;36346;48.280;14.292;2023-12-20T13:02:31;1.97;;;1.97;;
50417;SDS011;36346;48.280;14.292;2023-12-20T13:04:59;2.35;;;2.35;;
50417;SDS011;36346;48.280;14.292;2023-12-20T13:07:28;2.21;;;2.21;;
50417;SDS011;36346;48.280;14.292;2023-12-20T13:09:57;2.53;;;2.53;;
50417;SDS011;36346;48.280;14.292;2023-12-20T13:12:25;2.30;;;2.30;;
50417;SDS011;36346;48.280;14.292;2023-12-20T13:14:53;2.52;;;2.52;;
50417;SDS011;36346;48.280;14.292;2023-12-20T13:17:21;2.62;;;2.62;;
50417;SDS011;36346;48.280;14.292;2023-12-20T13:19:50;2.56;;;2.56;;
50417;SDS011;36346;48.280;14.292;2023-12-20T13:22:18;2.43;;;2.43;;
50417;SDS011;36346;48.280;14.292;2023-12-20T13:24:46;2.50;;;2.50;;
50417;SDS011;36346;48.280;14.292;2023-12-20T13:27:14;2.60;;;2.60;;
50417;SDS011;36346;48.280;14.292;2023-12-20T13:29:42;2.52;;;2.52;;
50417;SDS011;36346;48.280;14.292;2023-12-20T13:32:10;2.82;;;2.82;;
50417;SDS011;36346;48.280;14.292;2023-12-20T13:34:40;2.78;;;2.78;;
50417;SDS011;36346;48.280;14.292;2023-12-20T13:37:08;2.86;;;2.86;;
50417;SDS011;36346;48.280;14.292;2023-12-20T13:39:36;2.84;;;2.84;;
50417;SDS011;36346;48.280;14.292;2023-12-20T13:42:04;2.84;;;2.84;;
50417;SDS011;36346;48.280;14.292;2023-12-20T13:44:32;3.00;;;3.00;;
50417;SDS011;36346;48.280;14.292;2023-12-20T13:47:00;2.97;;;2.97;;
50417;SDS011;36346;48.280;14.292;2023-12-20T13:49:29;2.70;;;2.70;;
50417;SDS011;36346;48.280;14.292;2023-12-20T13:51:57;2.73;;;2.73;;
50417;SDS011;36346;48.280;14.292;2023-12-20T13:54:26;2.83;;;2.83;;
50417;SDS011;36346;48.280;14.292;2023-12-20T13:56:54;3.04;;;3.04;;
50417;SDS011;36346;48.280;14.292;2023-12-20T13:59:38;3.13;;;3.13;;
50417;SDS011;36346;48.280;14.292;2023-12-20T14:02:06;3.08;;;3.08;;
50417;SDS011;36346;48.280;14.292;2023-12-20T14:04:35;7.70;;;7.67;;
50417;SDS011;36346;48.280;14.292;2023-12-20T14:07:10;3.76;;;3.73;;
50417;SDS011;36346;48.280;14.292;2023-12-20T14:09:40;3.23;;;3.22;;
50417;SDS011;36346;48.280;14.292;2023-12-20T14:12:14;3.82;;;3.81;;
50417;SDS011;36346;48.280;14.292;2023-12-20T14:14:42;4.96;;;4.94;;
50417;SDS011;36346;48.280;14.292;2023-12-20T14:17:12;3.61;;;3.60;;
50417;SDS011;36346;48.280;14.292;2023-12-20T14:19:41;5.42;;;5.40;;
50417;SDS011;36346;48.280;14.292;2023-12-20T14:22:09;3.05;;;3.02;;
50417;SDS011;36346;48.280;14.292;2023-12-20T14:24:37;2.86;;;2.84;;
50417;SDS011;36346;48.280;14.292;2023-12-20T14:27:05;3.28;;;3.24;;
50417;SDS011;36346;48.280;14.292;2023-12-20T14:29:33;2.36;;;2.34;;
50417;SDS011;36346;48.280;14.292;2023-12-20T14:32:02;2.14;;;2.14;;
50417;SDS011;36346;48.280;14.292;2023-12-20T14:34:31;2.31;;;2.31;;
50417;SDS011;36346;48.280;14.292;2023-12-20T14:36:59;1.95;;;1.95;;
50417;SDS011;36346;48.280;14.292;2023-12-20T14:39:28;1.63;;;1.63;;
50417;SDS011;36346;48.280;14.292;2023-12-20T14:41:56;1.50;;;1.50;;